createdAt,value
2018-10-07T00:01:47.976Z,27.80
2018-10-07T00:04:16.806Z,23.17
2018-10-07T00:06:45.626Z,20.27
2018-10-07T00:09:14.495Z,20.70
2018-10-07T00:11:43.931Z,22.17
2018-10-07T00:14:12.841Z,23.03
2018-10-07T00:16:41.695Z,24.47
2018-10-07T00:19:10.569Z,19.90
2018-10-07T00:21:39.423Z,19.13
2018-10-07T00:24:14.698Z,25.87
2018-10-07T00:26:43.580Z,23.10
2018-10-07T00:29:12.600Z,22.50
2018-10-07T00:31:46.871Z,21.40
2018-10-07T00:34:15.747Z,21.93
2018-10-07T00:36:44.678Z,24.07
2018-10-07T00:39:13.534Z,19.07
2018-10-07T00:41:42.350Z,22.47
2018-10-07T00:44:11.216Z,18.77
2018-10-07T00:46:40.023Z,23.43
2018-10-07T00:49:08.896Z,21.20
2018-10-07T00:51:37.922Z,21.83
2018-10-07T00:54:06.973Z,25.17
2018-10-07T00:56:35.813Z,25.80
2018-10-07T00:59:04.654Z,21.40
2018-10-07T01:01:33.498Z,20.93
2018-10-07T01:04:02.319Z,28.33
2018-10-07T01:06:31.211Z,23.00
2018-10-07T01:09:00.089Z,21.00
2018-10-07T01:11:28.917Z,22.43
2018-10-07T01:13:57.863Z,26.03
2018-10-07T01:16:26.699Z,19.17
2018-10-07T01:18:55.530Z,20.47
2018-10-07T01:21:24.397Z,24.00
2018-10-07T01:23:54.123Z,17.43
2018-10-07T01:26:23.003Z,21.87
2018-10-07T01:28:51.855Z,18.63
2018-10-07T01:31:20.775Z,19.00
2018-10-07T01:33:49.639Z,26.53
2018-10-07T01:36:18.751Z,27.10
2018-10-07T01:38:47.613Z,19.60
2018-10-07T01:41:16.464Z,19.37
2018-10-07T01:43:45.410Z,24.33
2018-10-07T01:46:14.778Z,19.33
2018-10-07T01:48:43.676Z,21.50
2018-10-07T01:51:12.580Z,16.90
2018-10-07T01:53:41.431Z,19.07
2018-10-07T01:56:10.284Z,22.30
2018-10-07T01:58:39.199Z,19.57
2018-10-07T02:01:08.121Z,19.77
2018-10-07T02:03:37.004Z,20.80
2018-10-07T02:06:05.851Z,22.97
2018-10-07T02:08:34.716Z,28.47
2018-10-07T02:11:03.576Z,20.33
2018-10-07T02:13:32.410Z,24.07
2018-10-07T02:16:01.113Z,24.40
2018-10-07T02:18:29.969Z,19.33
2018-10-07T02:20:58.851Z,23.47
2018-10-07T02:23:27.756Z,20.80
2018-10-07T02:25:56.697Z,22.10
2018-10-07T02:28:25.572Z,20.40
2018-10-07T02:30:54.460Z,22.10
2018-10-07T02:33:23.318Z,22.17
2018-10-07T02:35:52.248Z,20.90
2018-10-07T02:38:21.100Z,20.73
2018-10-07T02:40:49.967Z,30.10
2018-10-07T02:43:18.811Z,25.17
2018-10-07T02:45:47.670Z,19.70
2018-10-07T02:48:16.571Z,20.00
2018-10-07T02:50:45.439Z,19.40
2018-10-07T02:53:14.387Z,21.90
2018-10-07T02:55:43.296Z,22.37
2018-10-07T02:58:12.256Z,21.50
2018-10-07T03:00:41.136Z,23.63
2018-10-07T03:03:10.027Z,24.97
2018-10-07T03:05:38.898Z,30.73
2018-10-07T03:08:07.779Z,22.70
2018-10-07T03:10:36.736Z,29.83
2018-10-07T03:13:05.628Z,20.47
2018-10-07T03:15:34.488Z,20.70
2018-10-07T03:18:03.387Z,21.80
2018-10-07T03:20:32.250Z,23.67
2018-10-07T03:23:01.111Z,22.53
2018-10-07T03:25:30.018Z,24.30
2018-10-07T03:27:58.841Z,22.50
2018-10-07T03:30:27.674Z,24.00
2018-10-07T03:32:56.531Z,19.87
2018-10-07T03:35:25.373Z,20.20
2018-10-07T03:37:54.216Z,23.33
2018-10-07T03:40:23.064Z,20.30
2018-10-07T03:42:51.904Z,21.30
2018-10-07T03:45:20.768Z,24.00
2018-10-07T03:47:49.606Z,19.13
2018-10-07T03:50:18.423Z,27.63
2018-10-07T03:52:47.295Z,21.73
2018-10-07T03:55:16.135Z,19.37
2018-10-07T03:57:45.052Z,24.57
2018-10-07T04:00:13.909Z,22.03
2018-10-07T04:02:42.836Z,19.60
2018-10-07T04:05:11.705Z,22.60
2018-10-07T04:07:40.556Z,21.30
2018-10-07T04:10:09.447Z,19.50
2018-10-07T04:12:38.267Z,22.70
2018-10-07T04:15:07.162Z,21.97
2018-10-07T04:17:36.105Z,19.77
2018-10-07T04:20:05.062Z,24.63
2018-10-07T04:22:34.005Z,22.77
2018-10-07T04:25:02.907Z,25.70
2018-10-07T04:27:31.748Z,21.93
2018-10-07T04:30:00.592Z,22.47
2018-10-07T04:32:29.466Z,25.53
2018-10-07T04:34:58.320Z,21.10
2018-10-07T04:37:27.149Z,26.70
2018-10-07T04:39:56.075Z,24.63
2018-10-07T04:42:24.929Z,25.13
2018-10-07T04:44:53.788Z,21.30
2018-10-07T04:47:22.708Z,23.70
2018-10-07T04:49:51.632Z,26.70
2018-10-07T04:52:20.540Z,22.53
2018-10-07T04:54:49.383Z,33.87
2018-10-07T04:57:18.220Z,20.27
2018-10-07T04:59:47.087Z,20.67
2018-10-07T05:02:15.931Z,23.07
2018-10-07T05:04:44.801Z,25.70
2018-10-07T05:07:13.666Z,24.50
2018-10-07T05:09:42.530Z,29.97
2018-10-07T05:12:11.821Z,23.43
2018-10-07T05:14:40.679Z,21.77
2018-10-07T05:17:10.316Z,21.40
2018-10-07T05:19:39.179Z,23.33
2018-10-07T05:22:07.999Z,19.47
2018-10-07T05:24:36.855Z,26.13
2018-10-07T05:27:05.832Z,26.60
2018-10-07T05:29:34.705Z,20.13
2018-10-07T05:32:03.576Z,23.47
2018-10-07T05:34:32.447Z,21.27
2018-10-07T05:37:01.291Z,20.83
2018-10-07T05:39:30.147Z,25.87
2018-10-07T05:41:59.028Z,22.27
2018-10-07T05:44:27.927Z,22.70
2018-10-07T05:46:56.776Z,22.17
2018-10-07T05:49:25.623Z,27.50
2018-10-07T05:51:54.496Z,26.30
2018-10-07T05:54:23.368Z,23.80
2018-10-07T05:56:52.223Z,22.80
2018-10-07T05:59:21.046Z,23.57
2018-10-07T06:01:50.557Z,24.60
2018-10-07T06:04:37.629Z,25.50
2018-10-07T06:07:06.476Z,26.67
2018-10-07T06:09:36.520Z,27.30
2018-10-07T06:12:05.390Z,31.00
2018-10-07T06:14:51.821Z,29.33
2018-10-07T06:17:20.740Z,35.50
2018-10-07T06:19:49.632Z,33.20
2018-10-07T06:22:18.478Z,33.43
2018-10-07T06:24:47.368Z,38.00
2018-10-07T06:27:16.271Z,38.50
2018-10-07T06:29:45.125Z,42.47
2018-10-07T06:32:13.987Z,35.23
2018-10-07T06:34:42.867Z,38.67
2018-10-07T06:37:11.728Z,43.50
2018-10-07T06:39:40.661Z,44.17
2018-10-07T06:42:09.463Z,53.30
2018-10-07T06:44:38.351Z,44.03
2018-10-07T06:47:07.318Z,51.67
2018-10-07T06:49:36.152Z,46.50
2018-10-07T06:52:05.027Z,50.93
2018-10-07T06:54:33.843Z,50.57
2018-10-07T06:57:02.695Z,45.03
2018-10-07T06:59:31.587Z,45.13
2018-10-07T07:02:06.876Z,43.77
2018-10-07T07:04:35.815Z,44.90
2018-10-07T07:07:04.696Z,48.77
2018-10-07T07:09:33.585Z,43.53
2018-10-07T07:12:02.426Z,40.67
2018-10-07T07:14:31.310Z,41.87
2018-10-07T07:17:00.139Z,45.30
2018-10-07T07:19:28.968Z,40.17
2018-10-07T07:21:57.838Z,47.00
2018-10-07T07:24:26.724Z,38.57
2018-10-07T07:26:55.553Z,43.27
2018-10-07T07:29:24.374Z,40.43
2018-10-07T07:31:53.629Z,40.70
2018-10-07T07:34:22.520Z,41.17
2018-10-07T07:36:51.438Z,39.70
2018-10-07T07:39:20.250Z,36.37
2018-10-07T07:41:49.194Z,32.83
2018-10-07T07:44:18.071Z,32.23
2018-10-07T07:46:46.987Z,27.97
2018-10-07T07:49:15.885Z,26.23
2018-10-07T07:51:44.749Z,24.70
2018-10-07T07:54:13.673Z,24.20
2018-10-07T07:56:42.577Z,21.30
2018-10-07T07:59:11.602Z,21.00
2018-10-07T08:01:40.463Z,20.90
2018-10-07T08:04:09.365Z,22.00
2018-10-07T08:06:39.136Z,23.30
2018-10-07T08:09:09.624Z,18.93
2018-10-07T08:11:38.472Z,20.50
2018-10-07T08:14:07.625Z,22.57
2018-10-07T08:16:36.483Z,20.33
2018-10-07T08:19:05.364Z,16.60
2018-10-07T08:21:34.226Z,14.67
2018-10-07T08:24:03.129Z,14.70
2018-10-07T08:26:31.985Z,18.27
2018-10-07T08:29:00.866Z,17.30
2018-10-07T08:31:29.714Z,14.97
2018-10-07T08:33:58.592Z,14.10
2018-10-07T08:36:27.402Z,13.83
2018-10-07T08:38:56.248Z,12.47
2018-10-07T08:41:25.079Z,12.97
2018-10-07T08:43:53.909Z,12.07
2018-10-07T08:46:22.767Z,13.10
2018-10-07T08:48:51.629Z,11.70
2018-10-07T08:51:20.518Z,15.00
2018-10-07T08:53:49.393Z,11.37
2018-10-07T08:56:18.339Z,18.00
2018-10-07T08:58:47.195Z,9.10
2018-10-07T09:01:16.054Z,12.10
2018-10-07T09:03:44.913Z,10.57
2018-10-07T09:06:13.796Z,10.50
2018-10-07T09:08:42.738Z,8.60
2018-10-07T09:11:11.590Z,8.67
2018-10-07T09:13:40.443Z,11.50
2018-10-07T09:16:09.324Z,8.63
2018-10-07T09:18:38.138Z,9.07
2018-10-07T09:21:07.087Z,8.07
2018-10-07T09:23:35.825Z,7.73
2018-10-07T09:26:04.663Z,10.10
2018-10-07T09:28:33.573Z,8.27
2018-10-07T09:31:02.444Z,8.80
2018-10-07T09:33:31.689Z,8.73
2018-10-07T09:36:00.585Z,6.90
2018-10-07T09:38:29.470Z,8.00
2018-10-07T09:40:58.327Z,7.07
2018-10-07T09:43:27.193Z,8.50
2018-10-07T09:45:58.000Z,7.30
2018-10-07T09:48:26.865Z,9.10
2018-10-07T09:50:55.723Z,8.37
2018-10-07T09:53:24.673Z,7.67
2018-10-07T09:55:53.588Z,6.97
2018-10-07T09:58:22.444Z,9.00
2018-10-07T10:00:51.245Z,6.63
2018-10-07T10:05:26.687Z,7.67
2018-10-07T10:07:55.544Z,6.70
2018-10-07T10:10:24.370Z,7.80
2018-10-07T10:12:53.175Z,9.67
2018-10-07T10:15:22.028Z,8.00
2018-10-07T10:17:56.088Z,9.30
2018-10-07T10:20:27.206Z,7.77
2018-10-07T10:23:07.998Z,6.87
2018-10-07T10:26:18.810Z,8.77
2018-10-07T10:29:26.209Z,9.33
2018-10-07T10:32:10.057Z,7.47
2018-10-07T10:34:48.044Z,6.80
2018-10-07T10:37:24.355Z,8.03
2018-10-07T10:39:59.037Z,8.23
2018-10-07T10:42:41.873Z,7.07
2018-10-07T10:45:21.088Z,12.23
2018-10-07T10:47:50.779Z,7.10
2018-10-07T10:52:37.335Z,10.30
2018-10-07T10:55:17.676Z,7.83
2018-10-07T10:57:50.355Z,8.97
2018-10-07T11:00:25.938Z,7.77
2018-10-07T11:05:09.661Z,8.50
2018-10-07T11:10:14.227Z,7.50
2018-10-07T11:12:54.134Z,6.77
2018-10-07T11:15:31.477Z,6.83
2018-10-07T11:19:19.308Z,11.90
2018-10-07T11:21:59.015Z,6.80
2018-10-07T11:24:38.888Z,10.90
2018-10-07T11:27:33.661Z,10.20
2018-10-07T11:32:15.012Z,9.17
2018-10-07T11:35:24.347Z,7.40
2018-10-07T11:38:08.799Z,7.13
2018-10-07T11:41:02.556Z,7.40
2018-10-07T11:44:15.084Z,7.60
2018-10-07T11:47:00.943Z,8.17
2018-10-07T11:49:41.663Z,7.87
2018-10-07T11:52:36.889Z,8.17
2018-10-07T11:55:06.752Z,7.53
2018-10-07T11:57:35.621Z,9.37
2018-10-07T12:00:04.540Z,6.93
2018-10-07T12:02:33.379Z,6.37
2018-10-07T12:05:02.184Z,7.70
2018-10-07T12:07:31.983Z,6.33
2018-10-07T12:10:00.868Z,6.37
2018-10-07T12:12:29.669Z,12.73
2018-10-07T12:14:58.489Z,8.40
2018-10-07T12:17:27.307Z,6.70
2018-10-07T12:19:56.181Z,12.10
2018-10-07T12:22:24.991Z,7.90
2018-10-07T12:24:53.783Z,8.97
2018-10-07T12:27:22.628Z,8.70
2018-10-07T12:29:51.459Z,9.03
2018-10-07T12:32:20.387Z,8.57
2018-10-07T12:34:49.284Z,7.13
2018-10-07T12:37:18.106Z,7.23
2018-10-07T12:39:46.947Z,11.40
2018-10-07T12:42:15.739Z,9.30
2018-10-07T12:44:44.601Z,6.83
2018-10-07T12:47:13.406Z,7.67
2018-10-07T12:49:42.294Z,20.20
2018-10-07T12:52:11.154Z,21.30
2018-10-07T12:54:40.020Z,8.90
2018-10-07T12:57:08.919Z,7.80
2018-10-07T12:59:37.728Z,9.60
2018-10-07T13:02:06.605Z,7.47
2018-10-07T13:04:35.477Z,6.60
2018-10-07T13:07:04.321Z,8.60
2018-10-07T13:09:33.174Z,9.83
2018-10-07T13:12:01.999Z,8.97
2018-10-07T13:14:30.799Z,6.90
2018-10-07T13:16:59.686Z,8.57
2018-10-07T13:19:28.475Z,7.60
2018-10-07T13:21:57.325Z,8.03
2018-10-07T13:24:26.150Z,8.30
2018-10-07T13:26:55.047Z,8.40
2018-10-07T13:29:23.931Z,8.63
2018-10-07T13:31:52.783Z,6.30
2018-10-07T13:34:21.771Z,7.50
2018-10-07T13:36:50.622Z,7.60
2018-10-07T13:39:19.468Z,7.93
2018-10-07T13:41:48.352Z,8.27
2018-10-07T13:44:17.237Z,6.20
2018-10-07T13:46:46.097Z,6.33
2018-10-07T13:49:15.053Z,8.40
2018-10-07T13:51:43.944Z,8.10
2018-10-07T13:54:12.818Z,7.93
2018-10-07T13:56:41.693Z,7.00
2018-10-07T13:59:10.556Z,7.33
2018-10-07T14:01:39.452Z,6.83
2018-10-07T14:04:08.331Z,6.20
2018-10-07T14:06:37.179Z,6.70
2018-10-07T14:09:07.848Z,10.27
2018-10-07T14:11:36.739Z,6.80
2018-10-07T14:14:05.648Z,14.60
2018-10-07T14:16:34.508Z,9.10
2018-10-07T14:19:03.381Z,7.20
2018-10-07T14:21:32.226Z,8.90
2018-10-07T14:24:01.167Z,7.20
2018-10-07T14:26:30.186Z,7.13
2018-10-07T14:28:59.066Z,7.47
2018-10-07T14:31:27.927Z,7.17
2018-10-07T14:33:56.844Z,9.50
2018-10-07T14:36:25.699Z,8.53
2018-10-07T14:38:54.564Z,6.83
2018-10-07T14:41:23.453Z,7.60
2018-10-07T14:43:52.343Z,8.70
2018-10-07T14:46:21.179Z,6.60
2018-10-07T14:48:50.043Z,8.80
2018-10-07T14:51:18.924Z,7.67
2018-10-07T14:53:47.790Z,6.70
2018-10-07T14:56:16.600Z,7.13
2018-10-07T14:58:45.426Z,8.93
2018-10-07T15:01:14.343Z,7.00
2018-10-07T15:03:43.249Z,7.03
2018-10-07T15:06:12.105Z,8.33
2018-10-07T15:08:41.160Z,7.70
2018-10-07T15:11:10.078Z,12.80
2018-10-07T15:13:39.085Z,8.17
2018-10-07T15:16:07.943Z,6.90
2018-10-07T15:18:36.899Z,8.40
2018-10-07T15:21:05.784Z,7.73
2018-10-07T15:23:34.757Z,8.00
2018-10-07T15:26:03.572Z,7.37
2018-10-07T15:28:32.467Z,7.80
2018-10-07T15:31:01.291Z,10.23
2018-10-07T15:33:30.110Z,7.73
2018-10-07T15:35:58.982Z,8.20
2018-10-07T15:38:27.846Z,10.03
2018-10-07T15:40:56.779Z,8.77
2018-10-07T15:43:25.640Z,9.67
2018-10-07T15:45:54.509Z,9.17
2018-10-07T15:48:23.380Z,8.90
2018-10-07T15:50:52.249Z,8.60
2018-10-07T15:53:21.147Z,9.60
2018-10-07T15:55:50.033Z,8.67
2018-10-07T15:58:18.867Z,16.30
2018-10-07T16:00:47.749Z,19.40
2018-10-07T16:03:16.596Z,23.80
2018-10-07T16:05:45.483Z,29.90
2018-10-07T16:08:14.686Z,30.00
2018-10-07T16:10:43.598Z,22.47
2018-10-07T16:13:12.459Z,18.00
2018-10-07T16:15:41.364Z,14.00
2018-10-07T16:18:10.321Z,13.40
2018-10-07T16:20:39.145Z,13.33
2018-10-07T16:23:08.019Z,10.17
2018-10-07T16:25:36.859Z,8.80
2018-10-07T16:28:05.728Z,9.10
2018-10-07T16:30:34.591Z,14.43
2018-10-07T16:33:03.439Z,9.73
2018-10-07T16:35:32.308Z,11.97
2018-10-07T16:38:01.259Z,21.33
2018-10-07T16:40:30.098Z,10.90
2018-10-07T16:42:58.979Z,14.30
2018-10-07T16:45:28.006Z,18.13
2018-10-07T16:47:56.913Z,15.40
2018-10-07T16:50:25.750Z,18.97
2018-10-07T16:52:54.658Z,14.70
2018-10-07T16:55:23.572Z,10.80
2018-10-07T16:57:52.492Z,12.80
2018-10-07T17:00:21.388Z,15.83
2018-10-07T17:02:50.226Z,11.90
2018-10-07T17:05:19.107Z,12.67
2018-10-07T17:07:47.976Z,15.73
2018-10-07T17:10:16.952Z,18.60
2018-10-07T17:12:45.913Z,11.63
2018-10-07T17:15:14.757Z,10.07
2018-10-07T17:17:43.602Z,9.50
2018-10-07T17:20:12.514Z,10.30
2018-10-07T17:22:41.527Z,13.00
2018-10-07T17:25:10.426Z,10.10
2018-10-07T17:27:39.391Z,13.10
2018-10-07T17:30:08.285Z,19.40
2018-10-07T17:32:37.160Z,10.30
2018-10-07T17:35:06.040Z,12.20
2018-10-07T17:37:34.900Z,13.27
2018-10-07T17:40:03.768Z,16.33
2018-10-07T17:42:32.741Z,14.23
2018-10-07T17:45:01.726Z,17.63
2018-10-07T17:47:30.659Z,11.93
2018-10-07T17:49:59.566Z,15.87
2018-10-07T17:52:28.481Z,15.23
2018-10-07T17:54:57.466Z,16.37
2018-10-07T17:57:26.324Z,16.03
2018-10-07T17:59:55.193Z,12.53
2018-10-07T18:02:24.059Z,16.60
2018-10-07T18:04:52.991Z,15.90
2018-10-07T18:07:21.922Z,12.60
2018-10-07T18:09:50.827Z,14.70
2018-10-07T18:12:19.741Z,14.73
2018-10-07T18:14:48.796Z,14.07
2018-10-07T18:17:17.715Z,48.70
2018-10-07T18:19:46.589Z,21.50
2018-10-07T18:22:15.429Z,20.37
2018-10-07T18:24:44.332Z,22.33
2018-10-07T18:27:13.237Z,18.70
2018-10-07T18:29:42.217Z,20.73
2018-10-07T18:32:11.114Z,17.00
2018-10-07T18:34:40.403Z,17.17
2018-10-07T18:37:09.269Z,18.23
2018-10-07T18:39:38.231Z,12.90
2018-10-07T18:42:07.108Z,19.07
2018-10-07T18:44:36.027Z,14.93
2018-10-07T18:47:05.027Z,13.70
2018-10-07T18:49:34.666Z,16.80
2018-10-07T18:52:03.568Z,14.17
2018-10-07T18:54:32.674Z,92.33
2018-10-07T18:57:02.892Z,109.17
2018-10-07T18:59:32.767Z,34.97
2018-10-07T19:02:01.758Z,12.30
2018-10-07T19:04:30.647Z,13.53
2018-10-07T19:06:59.619Z,14.50
2018-10-07T19:09:28.511Z,11.40
2018-10-07T19:11:57.528Z,14.60
2018-10-07T19:14:26.444Z,12.93
2018-10-07T19:16:55.328Z,14.53
2018-10-07T19:19:24.286Z,22.93
2018-10-07T19:21:53.186Z,10.17
2018-10-07T19:24:22.127Z,12.50
2018-10-07T19:26:51.048Z,12.57
2018-10-07T19:29:25.402Z,10.63
2018-10-07T19:31:54.344Z,9.83
2018-10-07T19:34:23.241Z,10.53
2018-10-07T19:36:52.312Z,14.57
2018-10-07T19:39:21.065Z,19.77
2018-10-07T19:41:50.161Z,11.30
2018-10-07T19:44:19.029Z,28.70
2018-10-07T19:46:47.987Z,27.13
2018-10-07T19:49:16.847Z,11.47
2018-10-07T19:51:45.724Z,13.23
2018-10-07T19:54:14.588Z,11.00
2018-10-07T19:56:43.486Z,11.50
2018-10-07T19:59:15.860Z,13.07
2018-10-07T20:01:44.715Z,13.90
2018-10-07T20:04:13.616Z,10.80
2018-10-07T20:06:42.461Z,14.70
2018-10-07T20:09:12.016Z,13.23
2018-10-07T20:11:41.070Z,15.23
2018-10-07T20:14:10.007Z,16.47
2018-10-07T20:16:38.945Z,19.20
2018-10-07T20:19:07.948Z,82.20
2018-10-07T20:21:36.764Z,49.80
2018-10-07T20:24:05.597Z,30.73
2018-10-07T20:26:34.410Z,19.37
2018-10-07T20:29:03.264Z,18.40
2018-10-07T20:31:32.097Z,21.10
2018-10-07T20:34:00.996Z,17.27
2018-10-07T20:36:29.788Z,17.13
2018-10-07T20:38:58.602Z,15.13
2018-10-07T20:41:27.416Z,13.93
2018-10-07T20:43:56.259Z,25.87
2018-10-07T20:46:25.154Z,27.70
2018-10-07T20:48:54.129Z,25.13
2018-10-07T20:51:22.951Z,28.77
2018-10-07T20:53:51.774Z,21.37
2018-10-07T20:56:21.304Z,21.70
2018-10-07T20:58:50.182Z,41.20
2018-10-07T21:01:18.999Z,19.30
2018-10-07T21:03:47.844Z,23.83
2018-10-07T21:06:16.747Z,24.13
2018-10-07T21:08:45.581Z,18.80
2018-10-07T21:11:14.412Z,16.00
2018-10-07T21:13:43.316Z,19.10
2018-10-07T21:16:12.267Z,78.47
2018-10-07T21:18:41.160Z,70.77
2018-10-07T21:21:09.986Z,53.27
2018-10-07T21:23:38.848Z,53.17
2018-10-07T21:26:07.987Z,118.77
2018-10-07T21:28:36.852Z,81.80
2018-10-07T21:31:05.716Z,39.17
2018-10-07T21:33:34.591Z,26.63
2018-10-07T21:36:03.427Z,28.20
2018-10-07T21:38:32.292Z,33.80
2018-10-07T21:41:01.115Z,24.20
2018-10-07T21:43:29.950Z,24.70
2018-10-07T21:45:58.804Z,31.80
2018-10-07T21:48:27.671Z,30.43
2018-10-07T21:50:56.495Z,25.53
2018-10-07T21:53:25.362Z,17.97
2018-10-07T21:55:54.212Z,21.23
2018-10-07T21:58:23.052Z,22.33
2018-10-07T22:00:51.887Z,24.50
2018-10-07T22:03:20.726Z,31.53
2018-10-07T22:05:49.587Z,29.30
2018-10-07T22:08:18.402Z,22.20
2018-10-07T22:10:47.195Z,21.73
2018-10-07T22:13:16.076Z,18.17
2018-10-07T22:15:45.087Z,16.60
2018-10-07T22:18:13.895Z,26.33
2018-10-07T22:20:42.722Z,13.07
2018-10-07T22:23:11.560Z,14.23
2018-10-07T22:25:40.440Z,18.10
2018-10-07T22:28:09.284Z,17.37
2018-10-07T22:30:38.090Z,20.07
2018-10-07T22:33:07.120Z,17.40
2018-10-07T22:35:35.936Z,17.50
2018-10-07T22:38:04.886Z,16.00
2018-10-07T22:40:33.732Z,15.53
2018-10-07T22:43:02.554Z,13.87
2018-10-07T22:45:31.385Z,22.83
2018-10-07T22:48:00.231Z,15.00
2018-10-07T22:50:29.072Z,13.97
2018-10-07T22:52:57.960Z,15.47
2018-10-07T22:55:26.812Z,15.90
2018-10-07T22:57:55.622Z,17.53
2018-10-07T23:00:24.530Z,13.27
2018-10-07T23:02:53.401Z,18.13
2018-10-07T23:05:22.316Z,14.60
2018-10-07T23:07:51.224Z,15.50
2018-10-07T23:10:20.092Z,15.43
2018-10-07T23:12:48.919Z,16.17
2018-10-07T23:15:18.350Z,13.83
2018-10-07T23:17:47.200Z,16.10
2018-10-07T23:20:16.113Z,14.43
2018-10-07T23:22:44.967Z,15.63
2018-10-07T23:25:13.851Z,14.27
2018-10-07T23:27:42.705Z,15.50
2018-10-07T23:30:11.526Z,15.00
2018-10-07T23:32:42.154Z,14.53
2018-10-07T23:35:10.987Z,21.20
2018-10-07T23:37:39.832Z,18.43
2018-10-07T23:40:09.383Z,16.47
2018-10-07T23:42:38.695Z,19.20
2018-10-07T23:45:07.565Z,14.60
2018-10-07T23:47:36.414Z,19.53
2018-10-07T23:50:05.339Z,20.00
2018-10-07T23:52:34.206Z,24.60
2018-10-07T23:55:03.196Z,20.70
2018-10-07T23:57:32.052Z,20.73
